Winona, KS (67764)

5:10 PM CDT on May 05, 2015 (GMT -0500)
KKSLEVAN2 | | Change Station
CLOSE
Current Station
Personal Weather Station
Location: Levant, KS
Elevation: 3293 ft
Nearby Weather Stations

Elev 3293 ft 39.30 °N, 101.20 °W | Updated 2 minutes ago

Rain
Rain
57.8 °F
Feels Like 57.8 °F
N
15.0
Wind Variable Wind from SE
Gusts 27.0 mph

Today
High -- | Low -- °F
--% Chance of Precip.
Yesterday
High -- | Low -- °F
Precip. -- in
6:42 AM 8:41 PM
Full, 97% visible
Pressure 29.86 in
Visibility 3.0 miles
Clouds Mostly Cloudy 800 ft
Mostly Cloudy 1100 ft
Overcast 1600 ft
Dew Point 56 °F
Humidity 94%
Rainfall 0.43 in
Snow Depth Not available.
UV 2 out of 12
Pollen 1.30 out of 12
Air Quality Not available.
Flu Activity Sporadic
METAR KCBK 052155Z AUTO 12020G29KT 3SM -RA BKN008 BKN011 OVC016 15/15 A2986 RMK AO2

More Conditions Fewer Conditions

Pressure 29.86 in
Visibility 3.0 miles
Clouds Mostly Cloudy 800 ft
Mostly Cloudy 1100 ft
Overcast 1600 ft
Dew Point 56 °F
Humidity 94%
Rainfall 0.43 in
Snow Depth Not available.
UV 2 out of 12
Pollen 1.30 out of 12
Air Quality Not available.
Flu Activity Sporadic
METAR KCBK 052155Z AUTO 12020G29KT 3SM -RA BKN008 BKN011 OVC016 15/15 A2986 RMK AO2

More Conditions Fewer Conditions

10-Day Weather Forecast

Almanac

Astronomy

May. 05, 2015 Rise Set
Actual Time
Civil Twilight
Nautical Twilight
Astronomical Twilight
Moon
Length of Visible Light
Length of Day
Tomorrow will be .
, % of the Moon is Illuminated

Today's Extremes

State Highs State Lows

Community

WunderPhotos

Upload Photos

1,818,994 photos uploaded!

WunderBlogs® & News

Nearby

Air Quality

  Air Quality AQ Index Pollutant
Not available.

Snow Depth

Station Depth Elevation

Earthquake Activity

City Distance Mag. Time & Date
Minimum magnitude displayed is 2.5.

Coastal Water Temperatures

Place Temperature

Stations

Nearby Weather Stations

Station Location Temp. Windchill Dew Point Humidity Wind Precip. Elev Updated Type